Latest Weather Observations for Mount Gellibrand

IDV60801

Issued at 9:32 am EST Sunday 24 June 2018 (issued every 10 minutes, with the page automatically refreshed every 10 minutes)

About weather observations | Map of weather stations | Latest weather observations for VIC | Other Formats
Station Details ID: 090035 Name: MOUNT GELLIBRAND Lat: -38.23 Lon: 143.79 Height: 261.0 m
Data from the previous 72 hours. | See also: Recent months at Mount Gellibrand
Date/Time
EST
Temp
°C
App
Temp
°C
Dew
Point
°C
Rel
Hum
%
Delta-T
°C
Wind Press
QNH
hPa
Press
MSL
hPa
Rain since
9am
mm
Dir  Spd
km/h
Gust
km/h
Spd
kts
Gust
kts
24/09:30am 8.1 6.2 4.9 80 1.4 WSW 4 6 2 3 1031.0 1031.4 0.0
24/09:00am 7.9 5.3 4.3 78 1.6 SW 7 9 4 5 1031.0 1031.4 0.0
24/08:30am 8.1 4.3 3.8 74 1.9 SSW 13 20 7 11 1030.9 1031.3 0.0
24/08:00am 7.8 4.1 4.4 79 1.5 SSW 13 20 7 11 1030.6 1031.0 0.0
24/07:30am 7.4 3.9 5.5 88 0.9 SW 13 20 7 11 1030.4 1030.8 0.0
24/07:00am 7.2 4.0 6.9 98 0.1 SW 13 20 7 11 1030.2 1030.6 0.0
24/06:30am 6.8 2.8 6.8 100 0.0 SW 17 22 9 12 1029.8 1030.2 0.0
24/06:00am 6.5 3.2 6.5 100 0.0 WSW 13 17 7 9 1029.6 1030.0 0.0
24/05:30am 6.4 3.1 6.4 100 0.0 W 13 15 7 8 1029.5 1029.9 0.0
24/05:00am 6.5 3.2 6.5 100 0.0 W 13 17 7 9 1029.4 1029.8 0.0
24/04:30am 6.5 3.6 6.4 99 0.0 WSW 11 13 6 7 1029.4 1029.8 0.0
24/04:00am 6.2 2.4 5.8 97 0.2 WSW 15 17 8 9 1029.3 1029.7 0.0
24/03:30am 6.5 3.1 5.9 96 0.3 WSW 13 15 7 8 1029.4 1029.8 0.0
24/03:00am 6.6 3.6 5.9 95 0.3 WSW 11 15 6 8 1029.4 1029.8 0.0
24/02:30am 6.4 3.0 5.7 95 0.3 WSW 13 15 7 8 1029.4 1029.8 0.0
24/02:00am 6.7 2.9 5.8 94 0.4 WSW 15 17 8 9 1029.3 1029.7 0.0
24/01:30am 5.9 2.3 4.9 93 0.4 SW 13 15 7 8 1029.3 1029.7 0.0
24/01:00am 6.7 2.4 5.2 90 0.7 SW 17 20 9 11 1029.3 1029.7 0.0
24/12:30am 6.6 2.6 4.9 89 0.8 WSW 15 17 8 9 1029.4 1029.8 0.0
24/12:00am 6.6 3.0 4.9 89 0.7 SW 13 17 7 9 1029.5 1029.9 0.0
 
Date/Time
EST
Temp
°C
App
Temp
°C
Dew
Point
°C
Rel
Hum
%
Delta-T
°C
Wind Press
QNH
hPa
Press
MSL
hPa
Rain since
9am
mm
Dir  Spd
km/h
Gust
km/h
Spd
kts
Gust
kts
23/11:30pm 7.2 3.8 6.1 93 0.5 SW 13 15 7 8 1029.6 1030.0 0.0
23/11:00pm 7.0 2.4 5.8 92 0.5 SW 19 22 10 12 1029.5 1029.9 0.0
23/10:30pm 7.3 3.6 6.4 94 0.4 WSW 15 17 8 9 1029.4 1029.8 0.0
23/10:00pm 7.6 4.4 7.0 96 0.3 WSW 13 15 7 8 1029.2 1029.6 0.0
23/09:30pm 7.5 5.1 7.1 97 0.2 WSW 9 11 5 6 1029.2 1029.6 0.0
23/09:00pm 7.2 3.6 6.6 96 0.3 SSW 15 17 8 9 1029.1 1029.5 0.0
23/08:30pm 7.3 3.6 6.2 93 0.5 SSW 15 17 8 9 1028.9 1029.3 0.0
23/08:00pm 7.7 3.6 6.3 91 0.6 SW 17 19 9 10 1028.5 1028.9 0.0
23/07:30pm 7.4 2.8 5.5 88 0.9 SW 19 22 10 12 1028.4 1028.8 0.0
23/07:00pm 7.6 3.0 5.4 86 1.0 WSW 19 20 10 11 1028.0 1028.3 0.0
23/06:30pm 8.8 4.2 6.3 84 1.2 SW 20 24 11 13 1027.6 1028.0 0.0
23/06:00pm 8.9 4.0 6.7 86 1.0 SW 22 28 12 15 1027.2 1027.6 0.0
23/05:30pm 9.3 4.8 6.9 85 1.1 SW 20 28 11 15 1026.9 1027.3 0.0
23/05:00pm 9.3 6.2 7.3 87 1.0 SW 13 22 7 12 1026.7 1027.1 0.0
23/04:30pm 9.8 7.4 8.6 92 0.6 SW 11 13 6 7 1026.7 1027.1 0.0
23/04:00pm 10.5 9.1 9.4 93 0.6 S 7 11 4 6 1026.5 1026.9 0.0
23/03:30pm 10.6 7.4 9.8 95 0.4 SW 17 22 9 12 1026.1 1026.5 0.0
23/03:00pm 10.5 7.4 10.3 99 0.1 WSW 17 24 9 13 1025.9 1026.3 0.0
23/02:30pm 10.6 7.6 10.6 100 0.0 WSW 17 20 9 11 1025.6 1026.0 0.0
23/02:00pm 10.3 6.8 10.3 100 0.0 WSW 19 22 10 12 1025.6 1026.0 0.0
23/01:30pm 9.3 6.3 9.3 100 0.0 WSW 15 22 8 12 1025.6 1026.0 0.0
23/01:00pm 9.0 6.3 9.0 100 0.0 WSW 13 17 7 9 1025.8 1026.2 0.0
23/12:30pm 9.1 6.1 9.1 100 0.0 W 15 20 8 11 1025.9 1026.3 0.0
23/12:00pm 8.4 4.4 8.4 100 0.0 W 19 20 10 11 1026.1 1026.5 0.0
23/11:30am 7.9 3.2 7.8 99 0.0 WNW 22 28 12 15 1026.2 1026.6 0.0
23/11:00am 7.5 3.0 7.1 97 0.2 WNW 20 24 11 13 1026.2 1026.6 0.0
23/10:30am 7.0 2.4 6.3 95 0.3 W 20 24 11 13 1026.1 1026.5 0.0
23/10:00am 6.7 2.2 6.1 96 0.3 W 19 20 10 11 1026.0 1026.4 0.0
23/09:30am 6.5 2.0 5.9 96 0.3 W 19 22 10 12 1025.9 1026.3 0.0
23/09:00am 6.3 2.9 5.9 97 0.2 WSW 13 17 7 9 1025.7 1026.1 0.0
23/08:30am 6.5 1.8 6.1 97 0.2 W 20 22 11 12 1025.2 1025.6 0.0
23/08:00am 6.2 1.7 5.9 98 0.1 W 19 22 10 12 1025.0 1025.4 0.0
23/07:30am 5.9 1.3 5.6 98 0.1 WNW 19 22 10 12 1024.8 1025.1 0.0
23/07:00am 5.7 0.1 5.4 98 0.1 WNW 24 28 13 15 1024.1 1024.4 0.0
23/06:30am 5.5 -0.5 5.4 99 0.0 NW 26 32 14 17 1023.9 1024.2 0.0
23/06:00am 5.0 -0.7 4.9 99 0.0 WNW 24 28 13 15 1023.7 1024.1 0.0
23/05:30am 4.8 -0.9 4.7 99 0.0 NW 24 28 13 15 1023.5 1023.9 0.0
23/05:00am 4.8 -1.7 4.7 99 0.0 NW 28 30 15 16 1023.4 1023.8 0.0
23/04:30am 4.4 -2.5 4.4 100 0.0 NW 30 32 16 17 1023.3 1023.7 0.0
23/04:00am 4.2 -2.4 4.1 99 0.0 NW 28 32 15 17 1023.3 1023.7 0.0
23/03:30am 4.7 -1.8 4.6 99 0.0 NW 28 32 15 17 1023.6 1024.0 0.0
23/03:00am 4.5 -1.7 4.4 99 0.0 NW 26 30 14 16 1023.7 1024.1 0.0
23/02:30am 4.2 -1.7 4.1 99 0.0 NW 24 28 13 15 1024.0 1024.3 0.0
23/02:00am 4.3 -1.9 4.2 99 0.0 NW 26 28 14 15 1024.1 1024.4 0.0
23/01:30am 4.1 -1.8 3.8 98 0.1 NW 24 28 13 15 1024.3 1024.6 0.0
23/01:00am 4.5 -1.4 4.1 97 0.2 NW 24 28 13 15 1024.4 1024.7 0.0
23/12:30am 5.1 -0.7 4.5 96 0.3 NW 24 28 13 15 1024.7 1025.0 0.0
23/12:00am 5.1 -0.7 4.5 96 0.3 NW 24 26 13 14 1024.7 1025.0 0.0
 
Date/Time
EST
Temp
°C
App
Temp
°C
Dew
Point
°C
Rel
Hum
%
Delta-T
°C
Wind Press
QNH
hPa
Press
MSL
hPa
Rain since
9am
mm
Dir  Spd
km/h
Gust
km/h
Spd
kts
Gust
kts
22/11:30pm 5.1 -0.3 4.4 95 0.3 NW 22 26 12 14 1025.0 1025.4 0.0
22/11:00pm 5.3 0.3 4.6 95 0.3 WNW 20 24 11 13 1025.1 1025.5 0.0
22/10:30pm 5.3 0.8 4.0 91 0.6 WNW 17 20 9 11 1025.2 1025.6 0.0
22/10:00pm 5.6 1.1 4.1 90 0.6 WNW 17 17 9 9 1025.3 1025.7 0.0
22/09:30pm 6.3 2.2 4.6 89 0.7 WNW 15 17 8 9 1025.6 1026.0 0.0
22/09:00pm 7.2 2.4 4.7 84 1.1 WNW 19 22 10 12 1025.6 1026.0 0.0
22/08:30pm 7.1 2.3 4.6 84 1.1 WNW 19 20 10 11 1025.8 1026.2 0.0
22/08:00pm 8.0 2.7 4.9 81 1.4 NW 22 24 12 13 1025.8 1026.2 0.0
22/07:30pm 8.4 3.4 4.8 78 1.6 NW 20 22 11 12 1025.7 1026.1 0.0
22/07:00pm 8.8 3.8 4.8 76 1.8 NW 20 22 11 12 1025.7 1026.1 0.0
22/06:30pm 9.2 4.2 4.8 74 2.0 WNW 20 24 11 13 1025.7 1026.1 0.0
22/06:00pm 9.2 4.2 4.8 74 2.0 WNW 20 24 11 13 1025.7 1026.1 0.0
22/05:30pm 9.3 4.6 5.3 76 1.8 WNW 19 20 10 11 1025.7 1026.1 0.0
22/05:00pm 9.9 5.7 5.7 75 1.9 WNW 17 19 9 10 1025.6 1026.0 0.0
22/04:30pm 10.8 6.2 5.8 71 2.3 WNW 19 22 10 12 1025.4 1025.8 0.0
22/04:00pm 11.4 6.6 5.7 68 2.7 NW 20 24 11 13 1025.5 1025.9 0.0
22/03:30pm 11.8 7.2 6.5 70 2.5 WNW 20 24 11 13 1025.5 1025.9 0.0
22/03:00pm 11.9 7.5 6.6 70 2.5 NW 19 24 10 13 1025.5 1025.9 0.0
22/02:30pm 11.9 7.5 7.2 73 2.3 NW 20 28 11 15 1025.5 1025.9 0.0
22/02:00pm 11.9 8.9 7.6 75 2.1 WNW 13 19 7 10 1025.8 1026.2 0.0
22/01:30pm 11.5 7.2 7.0 74 2.2 WNW 19 24 10 13 1026.1 1026.5 0.0
22/01:00pm 10.8 7.6 8.4 85 1.2 W 15 20 8 11 1026.4 1026.8 0.0
22/12:30pm 10.8 7.2 8.4 85 1.2 WNW 17 20 9 11 1026.7 1027.1 0.0
22/12:00pm 9.6 6.4 8.5 93 0.5 WNW 15 20 8 11 1027.1 1027.5 0.0
22/11:30am 9.2 6.5 9.1 99 0.0 WNW 13 19 7 10 1027.5 1027.9 0.0
22/11:00am 7.8 5.2 7.8 100 0.0 NW 11 15 6 8 1027.7 1028.1 0.0
22/10:30am 7.1 4.0 7.1 100 0.0 NW 13 17 7 9 1028.0 1028.3 0.0
22/10:00am 6.5 2.8 6.5 100 0.0 WNW 15 20 8 11 1027.8 1028.2 0.0
22/09:30am 6.3 2.6 6.3 100 0.0 NW 15 19 8 10 1028.0 1028.3 0.0
22/09:00am 5.7 1.5 5.7 100 0.0 WNW 17 19 9 10 1027.7 1028.1 0.2
22/08:30am 5.2 0.9 5.2 100 0.0 WNW 17 17 9 9 1027.6 1028.0 0.2
22/08:00am 4.9 0.9 4.9 100 0.0 WNW 15 17 8 9 1027.5 1027.9 0.2
22/07:30am 4.6 0.5 4.6 100 0.0 WNW 15 17 8 9 1027.3 1027.7 0.2
22/07:00am 4.4 0.3 4.4 100 0.0 WNW 15 19 8 10 1027.2 1027.6 0.2
22/06:30am 4.6 0.2 4.6 100 0.0 WNW 17 19 9 10 1027.1 1027.5 0.2
22/06:00am 4.3 -0.2 4.3 100 0.0 W 17 17 9 9 1027.0 1027.4 0.2
22/05:30am 4.7 0.7 4.7 100 0.0 WNW 15 17 8 9 1026.9 1027.3 0.2
22/05:00am 4.4 -0.1 4.4 100 0.0 WNW 17 17 9 9 1026.9 1027.3 0.0
22/04:30am 4.5 0.1 4.5 100 0.0 WNW 17 19 9 10 1026.9 1027.3 0.0
22/04:00am 5.0 1.0 5.0 100 0.0 WNW 15 15 8 8 1026.9 1027.3 0.0
22/03:30am 5.0 1.0 5.0 100 0.0 WNW 15 17 8 9 1027.2 1027.6 0.0
22/03:00am 5.4 1.5 5.4 100 0.0 WNW 15 17 8 9 1027.4 1027.8 0.0
22/02:30am 5.6 1.8 5.6 100 0.0 WNW 15 19 8 10 1027.4 1027.8 0.0
22/02:00am 6.0 2.6 6.0 100 0.0 WNW 13 15 7 8 1027.5 1027.9 0.0
22/01:30am 5.8 2.4 5.8 100 0.0 WNW 13 15 7 8 1027.4 1027.8 0.0
22/01:00am 6.0 3.0 6.0 100 0.0 WNW 11 15 6 8 1027.6 1028.0 0.0
22/12:30am 5.9 2.9 5.9 100 0.0 NW 11 15 6 8 1028.0 1028.3 0.0
22/12:00am 6.2 3.2 6.2 100 0.0 NW 11 13 6 7 1028.1 1028.4 0.0
 
Date/Time
EST
Temp
°C
App
Temp
°C
Dew
Point
°C
Rel
Hum
%
Delta-T
°C
Wind Press
QNH
hPa
Press
MSL
hPa
Rain since
9am
mm
Dir  Spd
km/h
Gust
km/h
Spd
kts
Gust
kts
21/11:30pm 6.2 3.6 6.2 100 0.0 NW 9 13 5 7 1028.2 1028.6 0.0
21/11:00pm 6.5 4.0 6.5 100 0.0 NW 9 11 5 6 1028.2 1028.6 0.0
21/10:30pm 6.5 4.4 6.5 100 0.0 WNW 7 9 4 5 1028.2 1028.6 0.0
21/10:00pm 6.7 4.1 6.3 97 0.2 W 9 11 5 6 1028.4 1028.8 0.0
21/09:30pm 7.1 4.6 6.4 95 0.3 W 9 9 5 5 1028.3 1028.7 0.0
21/09:00pm 8.0 6.0 7.2 95 0.4 WSW 7 11 4 6 1028.3 1028.7 0.0
21/08:30pm 7.9 4.4 7.1 95 0.4 WSW 15 15 8 8 1028.2 1028.6 0.0
21/08:00pm 7.8 4.3 7.2 96 0.3 WSW 15 15 8 8 1028.0 1028.3 0.0
21/07:30pm 7.2 3.5 6.5 95 0.3 WSW 15 15 8 8 1028.0 1028.3 0.0
21/07:00pm 7.1 3.8 6.4 95 0.3 WSW 13 15 7 8 1028.0 1028.3 0.0
21/06:30pm 7.3 3.6 6.4 94 0.4 WSW 15 15 8 8 1027.7 1028.1 0.0
21/06:00pm 7.5 3.5 6.6 94 0.4 WSW 17 19 9 10 1027.6 1028.0 0.0
21/05:30pm 7.9 4.3 6.8 93 0.5 WSW 15 15 8 8 1027.4 1027.8 0.0
21/05:00pm 8.6 4.7 7.2 91 0.7 WSW 17 19 9 10 1027.3 1027.7 0.0
21/04:30pm 9.4 5.2 7.5 88 0.9 WSW 19 22 10 12 1027.2 1027.6 0.0
21/04:00pm 10.5 6.3 7.6 82 1.4 W 19 24 10 13 1027.0 1027.4 0.0
21/03:30pm 10.4 6.7 8.0 85 1.2 W 17 20 9 11 1026.8 1027.2 0.0
21/03:00pm 10.7 6.0 7.9 83 1.4 W 22 30 12 16 1026.7 1027.1 0.0
21/02:30pm 10.7 6.6 7.9 83 1.4 W 19 24 10 13 1026.7 1027.1 0.0
21/02:00pm 10.9 7.1 7.6 80 1.6 WNW 17 22 9 12 1026.7 1027.1 0.0
21/01:30pm 10.4 6.6 7.5 82 1.4 WNW 17 20 9 11 1027.0 1027.4 0.0
21/01:00pm 10.5 6.7 7.4 81 1.5 W 17 22 9 12 1027.4 1027.8 0.0
21/12:30pm 9.9 5.3 6.4 79 1.7 W 20 26 11 14 1027.7 1028.1 0.0
21/12:00pm 9.9 5.8 6.3 78 1.7 W 17 22 9 12 1028.1 1028.4 0.0
21/11:30am 9.3 5.2 6.2 81 1.5 WNW 17 20 9 11 1028.3 1028.7 0.0
21/11:00am 8.4 4.1 5.3 81 1.4 W 17 20 9 11 1028.5 1028.9 0.0
21/10:30am 7.6 3.2 4.9 83 1.2 WNW 17 22 9 12 1028.6 1029.0 0.0
21/10:00am 6.5 1.9 3.8 83 1.2 W 17 24 9 13 1028.6 1029.0 0.0

Other Formats:

Comma delimited format used in spreadsheet applications
http://www.bom.gov.au/fwo/IDV60801/IDV60801.95845.axf

JavaScript Object Notation format (JSON) in row-major order
http://www.bom.gov.au/fwo/IDV60801/IDV60801.95845.json